TimeEST,TemperatureF,Dew PointF,Humidity,Sea Level PressureIn,VisibilityMPH,Wind Direction,Wind SpeedMPH,Gust SpeedMPH,PrecipitationIn,Events,Conditions,WindDirDegrees,DateUTC
12:55 AM,46.6,37.8,71,30.21,10.0,South,3.5,-,N/A,,Overcast,190,2012-12-01 05:55:00
1:55 AM,47.1,39.0,73,30.21,10.0,South,4.6,-,N/A,,Overcast,180,2012-12-01 06:55:00
2:55 AM,48.4,38.7,69,30.23,10.0,Calm,Calm,-,N/A,,Overcast,0,2012-12-01 07:55:00
3:55 AM,49.6,39.2,67,30.24,10.0,SSW,4.6,-,N/A,,Overcast,210,2012-12-01 08:55:00
4:55 AM,50.0,39.6,67,30.24,10.0,Calm,Calm,-,N/A,,Overcast,0,2012-12-01 09:55:00
5:55 AM,50.7,39.4,65,30.25,10.0,SSW,5.8,-,N/A,,Overcast,200,2012-12-01 10:55:00
6:55 AM,50.7,40.3,67,30.25,10.0,South,4.6,-,N/A,,Overcast,180,2012-12-01 11:55:00
7:55 AM,50.0,39.7,68,30.26,10.0,South,5.8,-,N/A,,Overcast,170,2012-12-01 12:55:00
8:55 AM,51.3,40.6,67,30.27,10.0,South,8.1,-,N/A,,Overcast,180,2012-12-01 13:55:00
9:55 AM,52.5,41.5,66,30.27,10.0,South,8.1,-,N/A,,Overcast,190,2012-12-01 14:55:00
10:55 AM,56.3,43.7,63,30.27,10.0,South,9.2,-,N/A,,Overcast,190,2012-12-01 15:55:00
11:55 AM,58.3,44.8,61,30.25,10.0,South,6.9,-,N/A,,Mostly Cloudy,170,2012-12-01 16:55:00
12:55 PM,61.7,45.9,56,30.22,10.0,South,5.8,-,N/A,,Mostly Cloudy,190,2012-12-01 17:55:00
1:55 PM,65.3,45.9,49,30.19,10.0,South,10.4,18.4,N/A,,Scattered Clouds,180,2012-12-01 18:55:00
2:55 PM,65.5,44.2,46,30.18,10.0,SSE,11.5,-,N/A,,Clear,160,2012-12-01 19:55:00
3:55 PM,64.4,45.0,49,30.16,10.0,SSE,10.4,-,N/A,,Clear,160,2012-12-01 20:55:00
4:55 PM,61.5,45.0,55,30.16,10.0,SSE,10.4,-,N/A,,Clear,150,2012-12-01 21:55:00
5:55 PM,59.2,45.5,60,30.16,10.0,SSE,9.2,-,N/A,,Clear,150,2012-12-01 22:55:00
6:55 PM,56.7,43.7,62,30.17,10.0,South,8.1,-,N/A,,Clear,170,2012-12-01 23:55:00
7:55 PM,57.0,44.2,62,30.16,10.0,SSE,9.2,-,N/A,,Clear,160,2012-12-02 00:55:00
8:55 PM,57.6,44.6,62,30.16,10.0,South,11.5,-,N/A,,Clear,180,2012-12-02 01:55:00
9:55 PM,56.8,45.3,65,30.15,10.0,South,12.7,-,N/A,,Clear,180,2012-12-02 02:55:00
10:55 PM,57.0,46.0,67,30.15,10.0,South,11.5,-,N/A,,Scattered Clouds,170,2012-12-02 03:55:00
11:55 PM,56.3,46.4,69,30.16,10.0,South,11.5,-,N/A,,Overcast,180,2012-12-02 04:55:00